sensor_id;sensor_type;location;lat;lon;timestamp;P1;durP1;ratioP1;P2;durP2;ratioP2
16870;SDS011;8552;48.120;-1.456;2022-09-01T00:01:12;14.27;;;10.38;;
16870;SDS011;8552;48.120;-1.456;2022-09-01T00:03:49;12.43;;;10.75;;
16870;SDS011;8552;48.120;-1.456;2022-09-01T00:06:20;11.07;;;9.68;;
16870;SDS011;8552;48.120;-1.456;2022-09-01T00:08:48;12.40;;;9.50;;
16870;SDS011;8552;48.120;-1.456;2022-09-01T00:11:14;11.15;;;9.93;;
16870;SDS011;8552;48.120;-1.456;2022-09-01T00:13:40;11.73;;;9.13;;
16870;SDS011;8552;48.120;-1.456;2022-09-01T00:16:06;10.27;;;8.95;;
16870;SDS011;8552;48.120;-1.456;2022-09-01T00:18:33;11.80;;;9.95;;
16870;SDS011;8552;48.120;-1.456;2022-09-01T00:20:59;14.75;;;10.70;;
16870;SDS011;8552;48.120;-1.456;2022-09-01T00:23:26;13.00;;;11.40;;
16870;SDS011;8552;48.120;-1.456;2022-09-01T00:25:54;19.75;;;11.60;;
16870;SDS011;8552;48.120;-1.456;2022-09-01T00:28:19;15.27;;;11.23;;
16870;SDS011;8552;48.120;-1.456;2022-09-01T00:30:45;15.73;;;10.82;;
16870;SDS011;8552;48.120;-1.456;2022-09-01T00:33:11;12.75;;;10.35;;
16870;SDS011;8552;48.120;-1.456;2022-09-01T00:35:38;15.98;;;10.23;;
16870;SDS011;8552;48.120;-1.456;2022-09-01T00:38:03;10.75;;;9.43;;
16870;SDS011;8552;48.120;-1.456;2022-09-01T00:40:29;10.68;;;9.57;;
16870;SDS011;8552;48.120;-1.456;2022-09-01T00:42:54;17.27;;;9.77;;
16870;SDS011;8552;48.120;-1.456;2022-09-01T00:45:20;10.52;;;9.43;;
16870;SDS011;8552;48.120;-1.456;2022-09-01T00:47:47;10.93;;;9.10;;
16870;SDS011;8552;48.120;-1.456;2022-09-01T00:50:14;12.02;;;9.30;;
16870;SDS011;8552;48.120;-1.456;2022-09-01T00:52:46;13.07;;;8.95;;
16870;SDS011;8552;48.120;-1.456;2022-09-01T00:55:18;10.23;;;7.68;;
16870;SDS011;8552;48.120;-1.456;2022-09-01T00:57:47;9.98;;;7.32;;
16870;SDS011;8552;48.120;-1.456;2022-09-01T01:00:23;7.45;;;6.60;;
16870;SDS011;8552;48.120;-1.456;2022-09-01T01:02:50;7.88;;;6.05;;
16870;SDS011;8552;48.120;-1.456;2022-09-01T01:05:20;10.63;;;6.43;;
16870;SDS011;8552;48.120;-1.456;2022-09-01T01:07:51;7.93;;;6.78;;
16870;SDS011;8552;48.120;-1.456;2022-09-01T01:10:20;8.55;;;6.72;;
16870;SDS011;8552;48.120;-1.456;2022-09-01T01:12:47;7.75;;;6.05;;
16870;SDS011;8552;48.120;-1.456;2022-09-01T01:15:17;17.83;;;6.95;;
16870;SDS011;8552;48.120;-1.456;2022-09-01T01:17:43;6.43;;;5.07;;
16870;SDS011;8552;48.120;-1.456;2022-09-01T01:20:10;7.60;;;6.38;;
16870;SDS011;8552;48.120;-1.456;2022-09-01T01:23:02;8.50;;;6.13;;
16870;SDS011;8552;48.120;-1.456;2022-09-01T01:28:12;10.70;;;6.47;;
16870;SDS011;8552;48.120;-1.456;2022-09-01T01:30:49;9.85;;;5.65;;
16870;SDS011;8552;48.120;-1.456;2022-09-01T01:33:21;7.57;;;6.30;;
16870;SDS011;8552;48.120;-1.456;2022-09-01T01:35:49;8.50;;;5.20;;
16870;SDS011;8552;48.120;-1.456;2022-09-01T01:38:16;5.82;;;5.22;;
16870;SDS011;8552;48.120;-1.456;2022-09-01T01:40:46;6.57;;;5.68;;
16870;SDS011;8552;48.120;-1.456;2022-09-01T01:43:13;7.78;;;5.88;;
16870;SDS011;8552;48.120;-1.456;2022-09-01T01:45:44;7.65;;;4.90;;
16870;SDS011;8552;48.120;-1.456;2022-09-01T01:48:18;8.63;;;6.25;;
16870;SDS011;8552;48.120;-1.456;2022-09-01T01:50:48;9.57;;;6.57;;
16870;SDS011;8552;48.120;-1.456;2022-09-01T01:53:17;9.63;;;6.53;;
16870;SDS011;8552;48.120;-1.456;2022-09-01T01:55:44;10.98;;;6.20;;
16870;SDS011;8552;48.120;-1.456;2022-09-01T01:58:15;7.03;;;5.88;;
16870;SDS011;8552;48.120;-1.456;2022-09-01T02:00:44;7.65;;;4.72;;
16870;SDS011;8552;48.120;-1.456;2022-09-01T02:03:12;5.72;;;5.13;;
16870;SDS011;8552;48.120;-1.456;2022-09-01T02:05:44;8.93;;;4.63;;
16870;SDS011;8552;48.120;-1.456;2022-09-01T02:08:11;7.65;;;6.40;;
16870;SDS011;8552;48.120;-1.456;2022-09-01T02:10:40;7.72;;;5.38;;
16870;SDS011;8552;48.120;-1.456;2022-09-01T02:13:08;7.88;;;5.03;;
16870;SDS011;8552;48.120;-1.456;2022-09-01T02:15:41;13.60;;;5.32;;
16870;SDS011;8552;48.120;-1.456;2022-09-01T02:18:18;9.38;;;5.38;;
16870;SDS011;8552;48.120;-1.456;2022-09-01T02:20:49;7.90;;;5.30;;
16870;SDS011;8552;48.120;-1.456;2022-09-01T02:23:17;9.38;;;4.72;;
16870;SDS011;8552;48.120;-1.456;2022-09-01T02:25:47;8.30;;;4.30;;
16870;SDS011;8552;48.120;-1.456;2022-09-01T02:28:15;8.57;;;4.55;;
16870;SDS011;8552;48.120;-1.456;2022-09-01T02:30:43;8.73;;;4.80;;
16870;SDS011;8552;48.120;-1.456;2022-09-01T02:33:14;5.13;;;4.60;;
16870;SDS011;8552;48.120;-1.456;2022-09-01T02:35:50;12.00;;;4.63;;
16870;SDS011;8552;48.120;-1.456;2022-09-01T02:38:19;5.13;;;3.83;;
16870;SDS011;8552;48.120;-1.456;2022-09-01T02:40:47;7.45;;;5.00;;
16870;SDS011;8552;48.120;-1.456;2022-09-01T02:43:14;7.10;;;4.57;;
16870;SDS011;8552;48.120;-1.456;2022-09-01T02:45:45;11.18;;;6.38;;
16870;SDS011;8552;48.120;-1.456;2022-09-01T02:48:19;8.07;;;4.95;;
16870;SDS011;8552;48.120;-1.456;2022-09-01T02:50:48;8.93;;;5.18;;
16870;SDS011;8552;48.120;-1.456;2022-09-01T02:53:14;11.02;;;4.70;;
16870;SDS011;8552;48.120;-1.456;2022-09-01T02:55:41;7.97;;;5.50;;
16870;SDS011;8552;48.120;-1.456;2022-09-01T02:58:07;9.65;;;5.03;;
16870;SDS011;8552;48.120;-1.456;2022-09-01T03:00:38;10.52;;;5.38;;
16870;SDS011;8552;48.120;-1.456;2022-09-01T03:03:05;10.73;;;5.47;;
16870;SDS011;8552;48.120;-1.456;2022-09-01T03:05:31;8.02;;;4.88;;
16870;SDS011;8552;48.120;-1.456;2022-09-01T03:08:00;8.63;;;4.80;;
16870;SDS011;8552;48.120;-1.456;2022-09-01T03:10:32;5.32;;;4.85;;
16870;SDS011;8552;48.120;-1.456;2022-09-01T03:13:01;6.28;;;3.92;;
16870;SDS011;8552;48.120;-1.456;2022-09-01T03:15:28;8.02;;;5.15;;
16870;SDS011;8552;48.120;-1.456;2022-09-01T03:17:55;6.20;;;4.88;;
16870;SDS011;8552;48.120;-1.456;2022-09-01T03:20:23;4.95;;;4.10;;
16870;SDS011;8552;48.120;-1.456;2022-09-01T03:22:48;6.82;;;4.90;;
16870;SDS011;8552;48.120;-1.456;2022-09-01T03:25:15;5.85;;;4.93;;
16870;SDS011;8552;48.120;-1.456;2022-09-01T03:27:42;7.53;;;4.57;;
16870;SDS011;8552;48.120;-1.456;2022-09-01T03:30:09;6.40;;;5.05;;
16870;SDS011;8552;48.120;-1.456;2022-09-01T03:32:36;6.93;;;5.10;;
16870;SDS011;8552;48.120;-1.456;2022-09-01T03:35:01;7.30;;;4.93;;
16870;SDS011;8552;48.120;-1.456;2022-09-01T03:37:27;7.53;;;5.20;;
16870;SDS011;8552;48.120;-1.456;2022-09-01T03:39:53;4.53;;;4.13;;
16870;SDS011;8552;48.120;-1.456;2022-09-01T03:42:19;10.82;;;5.00;;
16870;SDS011;8552;48.120;-1.456;2022-09-01T03:44:51;8.48;;;6.45;;
16870;SDS011;8552;48.120;-1.456;2022-09-01T03:47:20;10.95;;;6.28;;
16870;SDS011;8552;48.120;-1.456;2022-09-01T03:49:46;6.95;;;5.85;;
16870;SDS011;8552;48.120;-1.456;2022-09-01T03:52:14;8.77;;;5.68;;
16870;SDS011;8552;48.120;-1.456;2022-09-01T03:54:41;9.60;;;5.70;;
16870;SDS011;8552;48.120;-1.456;2022-09-01T03:57:08;6.03;;;5.43;;
16870;SDS011;8552;48.120;-1.456;2022-09-01T03:59:34;13.85;;;6.68;;
16870;SDS011;8552;48.120;-1.456;2022-09-01T04:02:02;14.13;;;6.32;;
16870;SDS011;8552;48.120;-1.456;2022-09-01T04:04:28;7.53;;;5.63;;
16870;SDS011;8552;48.120;-1.456;2022-09-01T04:06:57;6.95;;;5.53;;
16870;SDS011;8552;48.120;-1.456;2022-09-01T04:09:24;6.47;;;5.50;;
16870;SDS011;8552;48.120;-1.456;2022-09-01T04:11:50;6.75;;;5.35;;
16870;SDS011;8552;48.120;-1.456;2022-09-01T04:14:17;8.82;;;4.82;;
16870;SDS011;8552;48.120;-1.456;2022-09-01T04:16:44;7.65;;;6.13;;
16870;SDS011;8552;48.120;-1.456;2022-09-01T04:19:31;8.27;;;5.93;;
16870;SDS011;8552;48.120;-1.456;2022-09-01T04:22:00;10.90;;;6.20;;
16870;SDS011;8552;48.120;-1.456;2022-09-01T04:24:28;5.93;;;4.93;;
16870;SDS011;8552;48.120;-1.456;2022-09-01T04:26:57;8.43;;;5.28;;
16870;SDS011;8552;48.120;-1.456;2022-09-01T04:29:25;7.57;;;5.03;;
16870;SDS011;8552;48.120;-1.456;2022-09-01T04:31:53;8.50;;;5.30;;
16870;SDS011;8552;48.120;-1.456;2022-09-01T04:34:20;6.88;;;4.88;;
16870;SDS011;8552;48.120;-1.456;2022-09-01T04:36:49;6.28;;;4.68;;
16870;SDS011;8552;48.120;-1.456;2022-09-01T04:39:18;4.88;;;4.43;;
16870;SDS011;8552;48.120;-1.456;2022-09-01T04:41:44;5.07;;;4.68;;
16870;SDS011;8552;48.120;-1.456;2022-09-01T04:44:11;5.93;;;5.00;;
16870;SDS011;8552;48.120;-1.456;2022-09-01T04:46:41;6.88;;;5.13;;
16870;SDS011;8552;48.120;-1.456;2022-09-01T04:49:10;6.50;;;5.05;;
16870;SDS011;8552;48.120;-1.456;2022-09-01T04:51:40;5.15;;;4.65;;
16870;SDS011;8552;48.120;-1.456;2022-09-01T04:54:09;4.85;;;4.38;;
16870;SDS011;8552;48.120;-1.456;2022-09-01T04:56:38;8.65;;;4.38;;
16870;SDS011;8552;48.120;-1.456;2022-09-01T04:59:07;5.25;;;4.75;;
16870;SDS011;8552;48.120;-1.456;2022-09-01T05:01:35;4.70;;;4.07;;
16870;SDS011;8552;48.120;-1.456;2022-09-01T05:04:12;6.95;;;4.38;;
16870;SDS011;8552;48.120;-1.456;2022-09-01T05:06:41;7.35;;;6.05;;
16870;SDS011;8552;48.120;-1.456;2022-09-01T05:09:11;6.47;;;5.88;;
16870;SDS011;8552;48.120;-1.456;2022-09-01T05:11:39;12.13;;;5.90;;
16870;SDS011;8552;48.120;-1.456;2022-09-01T05:14:10;6.63;;;4.68;;
16870;SDS011;8552;48.120;-1.456;2022-09-01T05:16:37;7.60;;;5.60;;
16870;SDS011;8552;48.120;-1.456;2022-09-01T05:19:05;6.95;;;5.15;;
16870;SDS011;8552;48.120;-1.456;2022-09-01T05:21:38;6.38;;;5.22;;
16870;SDS011;8552;48.120;-1.456;2022-09-01T05:24:09;7.15;;;5.07;;
16870;SDS011;8552;48.120;-1.456;2022-09-01T05:26:36;4.95;;;4.53;;
16870;SDS011;8552;48.120;-1.456;2022-09-01T05:29:04;5.43;;;4.93;;
16870;SDS011;8552;48.120;-1.456;2022-09-01T05:31:41;5.10;;;4.70;;
16870;SDS011;8552;48.120;-1.456;2022-09-01T05:34:09;4.78;;;4.38;;
16870;SDS011;8552;48.120;-1.456;2022-09-01T05:36:36;5.60;;;5.20;;
16870;SDS011;8552;48.120;-1.456;2022-09-01T05:39:06;5.18;;;4.78;;
16870;SDS011;8552;48.120;-1.456;2022-09-01T05:41:35;6.25;;;5.65;;
16870;SDS011;8552;48.120;-1.456;2022-09-01T05:44:02;5.15;;;4.70;;
16870;SDS011;8552;48.120;-1.456;2022-09-01T05:46:32;5.90;;;4.95;;
16870;SDS011;8552;48.120;-1.456;2022-09-01T05:48:59;4.88;;;4.35;;
16870;SDS011;8552;48.120;-1.456;2022-09-01T05:51:26;6.80;;;5.93;;
16870;SDS011;8552;48.120;-1.456;2022-09-01T05:53:54;10.70;;;5.30;;
16870;SDS011;8552;48.120;-1.456;2022-09-01T05:56:23;5.70;;;5.20;;
16870;SDS011;8552;48.120;-1.456;2022-09-01T05:58:50;9.48;;;5.25;;
16870;SDS011;8552;48.120;-1.456;2022-09-01T06:03:48;6.70;;;5.72;;
16870;SDS011;8552;48.120;-1.456;2022-09-01T06:06:22;8.35;;;5.72;;
16870;SDS011;8552;48.120;-1.456;2022-09-01T06:08:51;8.43;;;5.55;;
16870;SDS011;8552;48.120;-1.456;2022-09-01T06:11:17;7.82;;;5.90;;
16870;SDS011;8552;48.120;-1.456;2022-09-01T06:13:44;6.43;;;5.82;;
16870;SDS011;8552;48.120;-1.456;2022-09-01T06:16:14;11.05;;;6.18;;
16870;SDS011;8552;48.120;-1.456;2022-09-01T06:18:41;8.60;;;6.22;;
16870;SDS011;8552;48.120;-1.456;2022-09-01T06:21:07;7.53;;;5.90;;
16870;SDS011;8552;48.120;-1.456;2022-09-01T06:23:42;9.93;;;6.75;;
16870;SDS011;8552;48.120;-1.456;2022-09-01T06:26:15;8.13;;;6.70;;
16870;SDS011;8552;48.120;-1.456;2022-09-01T06:28:45;10.20;;;6.43;;
16870;SDS011;8552;48.120;-1.456;2022-09-01T06:31:12;8.95;;;6.18;;
16870;SDS011;8552;48.120;-1.456;2022-09-01T06:33:39;9.30;;;6.25;;
16870;SDS011;8552;48.120;-1.456;2022-09-01T06:36:05;8.45;;;7.30;;
16870;SDS011;8552;48.120;-1.456;2022-09-01T06:38:33;9.02;;;6.95;;
16870;SDS011;8552;48.120;-1.456;2022-09-01T06:41:03;11.40;;;7.03;;
16870;SDS011;8552;48.120;-1.456;2022-09-01T06:43:37;10.05;;;7.05;;
16870;SDS011;8552;48.120;-1.456;2022-09-01T06:46:06;10.82;;;6.60;;
16870;SDS011;8552;48.120;-1.456;2022-09-01T06:48:36;9.25;;;7.40;;
16870;SDS011;8552;48.120;-1.456;2022-09-01T06:51:04;9.55;;;7.40;;
16870;SDS011;8552;48.120;-1.456;2022-09-01T06:53:33;8.65;;;6.90;;
16870;SDS011;8552;48.120;-1.456;2022-09-01T06:55:59;8.75;;;6.85;;
16870;SDS011;8552;48.120;-1.456;2022-09-01T06:58:25;9.48;;;8.00;;
16870;SDS011;8552;48.120;-1.456;2022-09-01T07:00:50;11.80;;;7.72;;
16870;SDS011;8552;48.120;-1.456;2022-09-01T07:03:17;10.45;;;7.63;;
16870;SDS011;8552;48.120;-1.456;2022-09-01T07:05:46;12.98;;;8.43;;
16870;SDS011;8552;48.120;-1.456;2022-09-01T07:08:16;12.10;;;7.93;;
16870;SDS011;8552;48.120;-1.456;2022-09-01T07:10:47;10.55;;;7.43;;
16870;SDS011;8552;48.120;-1.456;2022-09-01T07:13:16;8.68;;;6.90;;
16870;SDS011;8552;48.120;-1.456;2022-09-01T07:15:47;10.10;;;6.88;;
16870;SDS011;8552;48.120;-1.456;2022-09-01T07:18:14;11.38;;;7.13;;
16870;SDS011;8552;48.120;-1.456;2022-09-01T07:20:45;10.77;;;6.60;;
16870;SDS011;8552;48.120;-1.456;2022-09-01T07:23:16;12.00;;;7.57;;
16870;SDS011;8552;48.120;-1.456;2022-09-01T07:25:44;12.15;;;7.72;;
16870;SDS011;8552;48.120;-1.456;2022-09-01T07:28:12;8.57;;;6.47;;
16870;SDS011;8552;48.120;-1.456;2022-09-01T07:30:44;9.98;;;6.40;;
16870;SDS011;8552;48.120;-1.456;2022-09-01T07:33:14;8.85;;;6.90;;
16870;SDS011;8552;48.120;-1.456;2022-09-01T07:35:44;12.00;;;7.30;;
16870;SDS011;8552;48.120;-1.456;2022-09-01T07:38:10;13.02;;;7.47;;
16870;SDS011;8552;48.120;-1.456;2022-09-01T07:40:38;19.95;;;7.68;;
16870;SDS011;8552;48.120;-1.456;2022-09-01T07:43:09;11.50;;;7.45;;
16870;SDS011;8552;48.120;-1.456;2022-09-01T07:45:51;12.02;;;7.35;;
16870;SDS011;8552;48.120;-1.456;2022-09-01T07:48:23;12.18;;;7.10;;
16870;SDS011;8552;48.120;-1.456;2022-09-01T07:50:52;11.00;;;6.63;;
16870;SDS011;8552;48.120;-1.456;2022-09-01T07:53:24;10.35;;;7.28;;
16870;SDS011;8552;48.120;-1.456;2022-09-01T07:55:55;9.38;;;7.22;;
16870;SDS011;8552;48.120;-1.456;2022-09-01T07:58:25;11.95;;;6.68;;
16870;SDS011;8552;48.120;-1.456;2022-09-01T08:00:53;14.13;;;7.25;;
16870;SDS011;8552;48.120;-1.456;2022-09-01T08:03:23;10.85;;;7.90;;
16870;SDS011;8552;48.120;-1.456;2022-09-01T08:05:49;13.65;;;7.72;;
16870;SDS011;8552;48.120;-1.456;2022-09-01T08:08:21;10.15;;;7.22;;
16870;SDS011;8552;48.120;-1.456;2022-09-01T08:10:48;11.65;;;7.40;;
16870;SDS011;8552;48.120;-1.456;2022-09-01T08:13:14;11.00;;;7.38;;
16870;SDS011;8552;48.120;-1.456;2022-09-01T08:15:41;15.48;;;7.88;;
16870;SDS011;8552;48.120;-1.456;2022-09-01T08:18:07;13.05;;;7.72;;
16870;SDS011;8552;48.120;-1.456;2022-09-01T08:20:33;11.60;;;7.65;;
16870;SDS011;8552;48.120;-1.456;2022-09-01T08:23:03;12.23;;;8.20;;
16870;SDS011;8552;48.120;-1.456;2022-09-01T08:25:31;12.30;;;8.45;;
16870;SDS011;8552;48.120;-1.456;2022-09-01T08:28:03;13.32;;;8.30;;
16870;SDS011;8552;48.120;-1.456;2022-09-01T08:30:29;12.95;;;7.97;;
16870;SDS011;8552;48.120;-1.456;2022-09-01T08:33:00;14.00;;;8.07;;
16870;SDS011;8552;48.120;-1.456;2022-09-01T08:35:26;12.52;;;8.43;;
16870;SDS011;8552;48.120;-1.456;2022-09-01T08:37:56;14.73;;;8.65;;
16870;SDS011;8552;48.120;-1.456;2022-09-01T08:40:22;13.45;;;8.45;;
16870;SDS011;8552;48.120;-1.456;2022-09-01T08:45:46;15.73;;;8.98;;
16870;SDS011;8552;48.120;-1.456;2022-09-01T08:48:20;13.55;;;9.10;;
16870;SDS011;8552;48.120;-1.456;2022-09-01T08:50:58;13.52;;;8.80;;
16870;SDS011;8552;48.120;-1.456;2022-09-01T08:53:46;12.32;;;9.07;;
16870;SDS011;8552;48.120;-1.456;2022-09-01T08:56:20;14.20;;;9.32;;
16870;SDS011;8552;48.120;-1.456;2022-09-01T08:58:47;16.30;;;10.18;;
16870;SDS011;8552;48.120;-1.456;2022-09-01T09:01:21;16.85;;;9.85;;
16870;SDS011;8552;48.120;-1.456;2022-09-01T09:04:08;16.33;;;9.68;;
16870;SDS011;8552;48.120;-1.456;2022-09-01T09:09:45;12.75;;;10.30;;
16870;SDS011;8552;48.120;-1.456;2022-09-01T09:12:28;15.52;;;10.30;;
16870;SDS011;8552;48.120;-1.456;2022-09-01T09:17:43;16.15;;;10.85;;
16870;SDS011;8552;48.120;-1.456;2022-09-01T09:20:17;14.45;;;11.10;;
16870;SDS011;8552;48.120;-1.456;2022-09-01T09:22:43;16.08;;;11.07;;
16870;SDS011;8552;48.120;-1.456;2022-09-01T09:25:13;12.55;;;10.00;;
16870;SDS011;8552;48.120;-1.456;2022-09-01T09:27:45;13.70;;;10.60;;
16870;SDS011;8552;48.120;-1.456;2022-09-01T09:30:22;13.90;;;9.90;;
16870;SDS011;8552;48.120;-1.456;2022-09-01T09:35:29;15.63;;;10.30;;
16870;SDS011;8552;48.120;-1.456;2022-09-01T09:43:25;16.13;;;10.57;;
16870;SDS011;8552;48.120;-1.456;2022-09-01T09:46:18;14.32;;;10.52;;
16870;SDS011;8552;48.120;-1.456;2022-09-01T09:51:55;11.18;;;10.02;;
16870;SDS011;8552;48.120;-1.456;2022-09-01T09:54:36;13.30;;;10.93;;
16870;SDS011;8552;48.120;-1.456;2022-09-01T09:59:35;16.40;;;10.50;;
16870;SDS011;8552;48.120;-1.456;2022-09-01T10:07:48;14.80;;;10.23;;
16870;SDS011;8552;48.120;-1.456;2022-09-01T10:10:26;13.23;;;9.70;;
16870;SDS011;8552;48.120;-1.456;2022-09-01T10:12:55;13.35;;;10.60;;
16870;SDS011;8552;48.120;-1.456;2022-09-01T10:15:28;16.48;;;10.75;;
16870;SDS011;8552;48.120;-1.456;2022-09-01T10:18:07;13.90;;;9.60;;
16870;SDS011;8552;48.120;-1.456;2022-09-01T10:20:38;15.63;;;9.93;;
16870;SDS011;8552;48.120;-1.456;2022-09-01T10:23:13;11.50;;;10.30;;
16870;SDS011;8552;48.120;-1.456;2022-09-01T10:25:38;13.57;;;10.20;;
16870;SDS011;8552;48.120;-1.456;2022-09-01T10:28:08;10.32;;;9.07;;
16870;SDS011;8552;48.120;-1.456;2022-09-01T10:30:39;12.35;;;9.73;;
16870;SDS011;8552;48.120;-1.456;2022-09-01T10:33:07;10.52;;;9.10;;
16870;SDS011;8552;48.120;-1.456;2022-09-01T10:35:35;11.02;;;9.73;;
16870;SDS011;8552;48.120;-1.456;2022-09-01T10:38:08;12.25;;;9.82;;
16870;SDS011;8552;48.120;-1.456;2022-09-01T10:40:55;10.65;;;9.05;;
16870;SDS011;8552;48.120;-1.456;2022-09-01T10:43:45;11.85;;;8.88;;
16870;SDS011;8552;48.120;-1.456;2022-09-01T10:48:48;9.95;;;8.63;;
16870;SDS011;8552;48.120;-1.456;2022-09-01T11:04:11;9.93;;;8.93;;
16870;SDS011;8552;48.120;-1.456;2022-09-01T11:06:43;8.43;;;6.55;;
16870;SDS011;8552;48.120;-1.456;2022-09-01T11:14:51;5.85;;;5.32;;
16870;SDS011;8552;48.120;-1.456;2022-09-01T11:17:25;8.27;;;5.20;;
16870;SDS011;8552;48.120;-1.456;2022-09-01T11:22:35;7.57;;;4.40;;
16870;SDS011;8552;48.120;-1.456;2022-09-01T11:36:34;5.28;;;4.50;;
16870;SDS011;8552;48.120;-1.456;2022-09-01T11:41:51;5.95;;;4.43;;
16870;SDS011;8552;48.120;-1.456;2022-09-01T11:44:47;6.38;;;4.50;;
16870;SDS011;8552;48.120;-1.456;2022-09-01T11:47:21;5.45;;;4.88;;
16870;SDS011;8552;48.120;-1.456;2022-09-01T11:49:54;9.48;;;5.53;;
16870;SDS011;8552;48.120;-1.456;2022-09-01T11:52:24;6.57;;;5.22;;
16870;SDS011;8552;48.120;-1.456;2022-09-01T11:54:52;5.82;;;5.22;;
16870;SDS011;8552;48.120;-1.456;2022-09-01T11:57:20;7.93;;;5.32;;
16870;SDS011;8552;48.120;-1.456;2022-09-01T11:59:47;8.10;;;5.07;;
16870;SDS011;8552;48.120;-1.456;2022-09-01T12:02:20;8.75;;;5.97;;
16870;SDS011;8552;48.120;-1.456;2022-09-01T12:04:58;7.70;;;5.75;;
16870;SDS011;8552;48.120;-1.456;2022-09-01T12:09:53;8.38;;;6.35;;
16870;SDS011;8552;48.120;-1.456;2022-09-01T12:12:36;8.55;;;6.53;;
16870;SDS011;8552;48.120;-1.456;2022-09-01T12:15:05;8.23;;;5.80;;
16870;SDS011;8552;48.120;-1.456;2022-09-01T12:17:46;10.93;;;6.38;;
16870;SDS011;8552;48.120;-1.456;2022-09-01T12:20:23;6.78;;;5.53;;
16870;SDS011;8552;48.120;-1.456;2022-09-01T12:22:55;7.10;;;6.40;;
16870;SDS011;8552;48.120;-1.456;2022-09-01T12:25:32;9.25;;;7.00;;
16870;SDS011;8552;48.120;-1.456;2022-09-01T12:27:59;9.05;;;6.85;;
16870;SDS011;8552;48.120;-1.456;2022-09-01T12:30:31;8.23;;;6.38;;
16870;SDS011;8552;48.120;-1.456;2022-09-01T12:33:09;10.07;;;6.30;;
16870;SDS011;8552;48.120;-1.456;2022-09-01T12:35:40;6.55;;;5.93;;
16870;SDS011;8552;48.120;-1.456;2022-09-01T12:40:48;9.73;;;7.15;;
16870;SDS011;8552;48.120;-1.456;2022-09-01T12:43:28;8.45;;;7.38;;
16870;SDS011;8552;48.120;-1.456;2022-09-01T12:45:58;7.13;;;6.43;;
16870;SDS011;8552;48.120;-1.456;2022-09-01T12:48:26;6.88;;;6.18;;
16870;SDS011;8552;48.120;-1.456;2022-09-01T12:50:55;10.48;;;6.53;;
16870;SDS011;8552;48.120;-1.456;2022-09-01T12:53:27;7.82;;;6.78;;
16870;SDS011;8552;48.120;-1.456;2022-09-01T12:56:03;7.95;;;7.15;;
16870;SDS011;8552;48.120;-1.456;2022-09-01T12:58:41;6.43;;;5.82;;
16870;SDS011;8552;48.120;-1.456;2022-09-01T13:01:22;7.25;;;6.47;;
16870;SDS011;8552;48.120;-1.456;2022-09-01T13:04:09;9.15;;;6.80;;
16870;SDS011;8552;48.120;-1.456;2022-09-01T13:06:39;7.18;;;6.32;;
16870;SDS011;8552;48.120;-1.456;2022-09-01T13:09:04;9.32;;;5.90;;
16870;SDS011;8552;48.120;-1.456;2022-09-01T13:11:30;7.80;;;7.00;;
16870;SDS011;8552;48.120;-1.456;2022-09-01T13:13:57;7.35;;;6.45;;
16870;SDS011;8552;48.120;-1.456;2022-09-01T13:16:23;7.72;;;6.05;;
16870;SDS011;8552;48.120;-1.456;2022-09-01T13:18:49;6.50;;;5.70;;
16870;SDS011;8552;48.120;-1.456;2022-09-01T13:21:14;8.07;;;7.07;;
16870;SDS011;8552;48.120;-1.456;2022-09-01T13:23:40;5.88;;;5.35;;
16870;SDS011;8552;48.120;-1.456;2022-09-01T13:26:06;8.95;;;6.28;;
16870;SDS011;8552;48.120;-1.456;2022-09-01T13:28:32;6.95;;;6.32;;
16870;SDS011;8552;48.120;-1.456;2022-09-01T13:30:59;8.40;;;6.47;;
16870;SDS011;8552;48.120;-1.456;2022-09-01T13:33:30;7.90;;;6.93;;
16870;SDS011;8552;48.120;-1.456;2022-09-01T13:35:58;8.18;;;5.90;;
16870;SDS011;8552;48.120;-1.456;2022-09-01T13:38:23;9.07;;;4.90;;
16870;SDS011;8552;48.120;-1.456;2022-09-01T13:40:49;5.53;;;4.65;;
16870;SDS011;8552;48.120;-1.456;2022-09-01T13:43:16;5.85;;;5.25;;
16870;SDS011;8552;48.120;-1.456;2022-09-01T13:45:45;8.38;;;4.60;;
16870;SDS011;8552;48.120;-1.456;2022-09-01T13:48:12;5.20;;;4.53;;
16870;SDS011;8552;48.120;-1.456;2022-09-01T13:50:39;5.63;;;4.65;;
16870;SDS011;8552;48.120;-1.456;2022-09-01T13:53:05;7.40;;;4.85;;
16870;SDS011;8552;48.120;-1.456;2022-09-01T13:55:33;7.28;;;4.82;;
16870;SDS011;8552;48.120;-1.456;2022-09-01T13:58:02;7.32;;;4.60;;
16870;SDS011;8552;48.120;-1.456;2022-09-01T14:00:29;5.15;;;4.38;;
16870;SDS011;8552;48.120;-1.456;2022-09-01T14:02:58;5.32;;;4.47;;
16870;SDS011;8552;48.120;-1.456;2022-09-01T14:05:28;4.65;;;4.25;;
16870;SDS011;8552;48.120;-1.456;2022-09-01T14:07:56;6.20;;;4.38;;
16870;SDS011;8552;48.120;-1.456;2022-09-01T14:10:22;5.90;;;4.07;;
16870;SDS011;8552;48.120;-1.456;2022-09-01T14:12:50;4.50;;;4.10;;
16870;SDS011;8552;48.120;-1.456;2022-09-01T14:15:17;6.65;;;4.32;;
16870;SDS011;8552;48.120;-1.456;2022-09-01T14:17:44;4.90;;;4.20;;
16870;SDS011;8552;48.120;-1.456;2022-09-01T14:20:13;5.70;;;4.00;;
16870;SDS011;8552;48.120;-1.456;2022-09-01T14:22:42;5.28;;;4.50;;
16870;SDS011;8552;48.120;-1.456;2022-09-01T14:25:08;6.30;;;3.38;;
16870;SDS011;8552;48.120;-1.456;2022-09-01T14:27:35;5.65;;;3.35;;
16870;SDS011;8552;48.120;-1.456;2022-09-01T14:30:01;4.53;;;3.40;;
16870;SDS011;8552;48.120;-1.456;2022-09-01T14:32:28;4.75;;;4.03;;
16870;SDS011;8552;48.120;-1.456;2022-09-01T14:34:54;5.00;;;4.03;;
16870;SDS011;8552;48.120;-1.456;2022-09-01T14:37:21;4.75;;;3.92;;
16870;SDS011;8552;48.120;-1.456;2022-09-01T14:39:48;3.40;;;3.10;;
16870;SDS011;8552;48.120;-1.456;2022-09-01T14:42:14;3.47;;;3.00;;
16870;SDS011;8552;48.120;-1.456;2022-09-01T14:44:40;3.70;;;3.40;;
16870;SDS011;8552;48.120;-1.456;2022-09-01T14:47:07;4.32;;;3.88;;
16870;SDS011;8552;48.120;-1.456;2022-09-01T14:49:34;6.05;;;4.25;;
16870;SDS011;8552;48.120;-1.456;2022-09-01T14:52:01;5.13;;;4.10;;
16870;SDS011;8552;48.120;-1.456;2022-09-01T14:54:29;5.53;;;4.20;;
16870;SDS011;8552;48.120;-1.456;2022-09-01T14:56:55;5.53;;;3.90;;
16870;SDS011;8552;48.120;-1.456;2022-09-01T14:59:23;4.30;;;3.88;;
16870;SDS011;8552;48.120;-1.456;2022-09-01T15:01:50;4.63;;;3.88;;
16870;SDS011;8552;48.120;-1.456;2022-09-01T15:04:18;5.70;;;4.28;;
16870;SDS011;8552;48.120;-1.456;2022-09-01T15:06:46;4.68;;;3.80;;
16870;SDS011;8552;48.120;-1.456;2022-09-01T15:09:11;4.22;;;3.83;;
16870;SDS011;8552;48.120;-1.456;2022-09-01T15:11:39;5.03;;;3.80;;
16870;SDS011;8552;48.120;-1.456;2022-09-01T15:14:08;3.72;;;3.30;;
16870;SDS011;8552;48.120;-1.456;2022-09-01T15:16:34;3.67;;;2.97;;
16870;SDS011;8552;48.120;-1.456;2022-09-01T15:19:05;3.35;;;2.80;;
16870;SDS011;8552;48.120;-1.456;2022-09-01T15:21:34;4.22;;;2.97;;
16870;SDS011;8552;48.120;-1.456;2022-09-01T15:24:01;4.65;;;2.90;;
16870;SDS011;8552;48.120;-1.456;2022-09-01T15:26:28;3.20;;;2.45;;
16870;SDS011;8552;48.120;-1.456;2022-09-01T15:28:54;3.50;;;3.20;;
16870;SDS011;8552;48.120;-1.456;2022-09-01T15:31:23;3.22;;;2.65;;
16870;SDS011;8552;48.120;-1.456;2022-09-01T15:33:53;3.78;;;2.55;;
16870;SDS011;8552;48.120;-1.456;2022-09-01T15:36:21;2.92;;;2.47;;
16870;SDS011;8552;48.120;-1.456;2022-09-01T15:38:48;4.60;;;3.13;;
16870;SDS011;8552;48.120;-1.456;2022-09-01T15:41:18;3.80;;;3.30;;
16870;SDS011;8552;48.120;-1.456;2022-09-01T15:43:45;3.33;;;3.03;;
16870;SDS011;8552;48.120;-1.456;2022-09-01T15:46:11;5.40;;;2.75;;
16870;SDS011;8552;48.120;-1.456;2022-09-01T15:48:38;3.15;;;2.95;;
16870;SDS011;8552;48.120;-1.456;2022-09-01T15:53:46;5.00;;;2.83;;
16870;SDS011;8552;48.120;-1.456;2022-09-01T15:56:16;4.38;;;2.90;;
16870;SDS011;8552;48.120;-1.456;2022-09-01T15:58:42;3.20;;;2.72;;
16870;SDS011;8552;48.120;-1.456;2022-09-01T16:01:09;3.40;;;2.45;;
16870;SDS011;8552;48.120;-1.456;2022-09-01T16:03:35;2.53;;;2.33;;
16870;SDS011;8552;48.120;-1.456;2022-09-01T16:06:01;3.75;;;3.08;;
16870;SDS011;8552;48.120;-1.456;2022-09-01T16:08:27;3.13;;;2.42;;
16870;SDS011;8552;48.120;-1.456;2022-09-01T16:10:53;3.58;;;2.53;;
16870;SDS011;8552;48.120;-1.456;2022-09-01T16:13:20;3.00;;;2.70;;
16870;SDS011;8552;48.120;-1.456;2022-09-01T16:16:01;4.25;;;2.60;;